Time;durP1;ratioP1;P1;durP2;ratioP2;P2;SDS_P1;SDS_P2;PMS_P1;PMS_P2;Temp;Humidity;BMP_temperature;BMP_pressure;BME280_temperature;BME280_humidity;BME280_pressure;Samples;Min_cycle;Max_cycle;Signal;HPM_P1;HPM_P2
2022/09/28 00:02:19;;;;;;;7.45;6.65;;;;;;;11.96;66.06;97785.13;5091918;28;20088;-58
2022/09/28 00:04:46;;;;;;;5.22;4.72;;;;;;;11.94;65.95;97781.84;5091901;28;20476;-59
2022/09/28 00:07:13;;;;;;;6.72;6.07;;;;;;;11.95;66.03;97778.22;5092057;28;20086;-59
2022/09/28 00:09:39;;;;;;;6.22;5.63;;;;;;;11.95;66.06;97780.84;5091453;28;20614;-59
2022/09/28 00:12:06;;;;;;;7.10;5.82;;;;;;;11.94;65.83;97778.34;5091801;28;20044;-58
2022/09/28 00:14:32;;;;;;;6.40;5.28;;;;;;;11.94;65.82;97768.66;5091575;28;20535;-59
2022/09/28 00:16:59;;;;;;;6.75;5.75;;;;;;;11.92;65.94;97767.94;5091894;28;20150;-59
2022/09/28 00:19:25;;;;;;;6.13;5.53;;;;;;;11.93;65.93;97774.06;5091513;28;20087;-59
2022/09/28 00:21:52;;;;;;;6.40;5.75;;;;;;;11.93;65.99;97768.78;5091861;28;20052;-58
2022/09/28 00:24:19;;;;;;;7.30;6.05;;;;;;;11.92;65.91;97767.13;5091617;28;20123;-59
2022/09/28 00:26:54;;;;;;;7.43;6.28;;;;;;;11.90;65.88;97769.91;5091592;28;20083;-59
2022/09/28 00:29:27;;;;;;;8.00;6.47;;;;;;;11.88;65.98;97771.03;5090586;28;20546;-59
2022/09/28 00:32:10;;;;;;;7.43;6.65;;;;;;;11.88;65.88;97765.78;5090223;28;20091;-59
2022/09/28 00:34:41;;;;;;;7.43;6.70;;;;;;;11.88;65.94;97763.13;5090255;28;20127;-58
2022/09/28 00:37:08;;;;;;;7.93;6.80;;;;;;;11.88;66.21;97766.56;5091435;28;20048;-60
2022/09/28 00:39:37;;;;;;;9.38;7.07;;;;;;;11.86;66.03;97761.44;5089591;28;20130;-58
2022/09/28 00:42:13;;;;;;;7.32;6.63;;;;;;;11.85;66.17;97757.16;5090319;28;20139;-59
2022/09/28 00:44:51;;;;;;;9.27;7.47;;;;;;;11.85;66.42;97758.97;5091322;28;20075;-61
2022/09/28 00:47:25;;;;;;;8.98;7.70;;;;;;;11.86;66.43;97755.38;5089890;28;20044;-59
2022/09/28 00:50:16;;;;;;;10.80;8.18;;;;;;;11.85;66.15;97757.16;5091397;28;20208;-59
2022/09/28 00:53:05;;;;;;;10.70;7.43;;;;;;;11.84;66.35;97750.22;5091532;28;20105;-58
2022/09/28 00:55:54;;;;;;;9.90;7.80;;;;;;;11.83;66.66;97747.75;5091569;28;20083;-59
2022/09/28 00:58:26;;;;;;;8.65;7.57;;;;;;;11.86;66.49;97745.63;5089681;28;20091;-59
2022/09/28 01:00:58;;;;;;;15.05;8.93;;;;;;;11.88;66.54;97744.69;5091386;28;20048;-58
2022/09/28 01:03:26;;;;;;;8.93;7.72;;;;;;;11.88;66.15;97740.22;5091154;28;20123;-59
2022/09/28 01:05:56;;;;;;;8.07;7.20;;;;;;;11.89;66.47;97741.06;5089583;28;20089;-59
2022/09/28 01:08:26;;;;;;;9.93;8.25;;;;;;;11.89;66.38;97735.78;5089500;28;20051;-60
2022/09/28 01:10:53;;;;;;;10.63;8.45;;;;;;;11.90;66.24;97734.81;5090655;28;20450;-60
2022/09/28 01:13:22;;;;;;;13.52;9.02;;;;;;;11.88;66.02;97734.94;5090911;28;20090;-59
2022/09/28 01:16:17;;;;;;;10.88;9.27;;;;;;;11.83;66.48;97730.13;5089380;28;20048;-60
2022/09/28 01:18:53;;;;;;;10.45;9.10;;;;;;;11.87;66.28;97728.03;5090672;28;20066;-58
2022/09/28 01:21:22;;;;;;;11.60;9.38;;;;;;;11.84;65.86;97737.06;5090685;28;20043;-57
2022/09/28 01:23:52;;;;;;;10.85;8.68;;;;;;;11.81;65.92;97733.88;5089471;28;20087;-59
2022/09/28 01:26:55;;;;;;;14.32;9.02;;;;;;;11.73;66.30;97727.53;5090851;28;20040;-60
2022/09/28 01:29:21;;;;;;;11.82;8.60;;;;;;;11.76;65.86;97726.41;5080280;28;20051;-58
2022/09/28 01:31:55;;;;;;;11.10;8.75;;;;;;;11.72;66.35;97728.50;5090520;28;20044;-58
2022/09/28 01:34:30;;;;;;;10.70;9.52;;;;;;;11.70;66.44;97724.38;5089544;28;20056;-59
2022/09/28 01:37:02;;;;;;;10.00;8.80;;;;;;;11.68;66.59;97724.50;5089406;28;20048;-58
2022/09/28 01:39:37;;;;;;;10.55;9.15;;;;;;;11.68;66.64;97726.28;5090630;28;20036;-59
2022/09/28 01:42:09;;;;;;;12.57;9.02;;;;;;;11.69;66.54;97731.44;5093316;28;20039;-58
2022/09/28 01:44:42;;;;;;;10.43;8.13;;;;;;;11.69;66.63;97726.16;5094723;28;20044;-58
2022/09/28 01:47:13;;;;;;;10.63;9.18;;;;;;;11.70;66.54;97724.38;5093622;28;20048;-58
2022/09/28 01:49:50;;;;;;;12.45;10.52;;;;;;;11.67;66.38;97722.81;5093190;28;20097;-60
2022/09/28 01:52:46;;;;;;;9.90;8.77;;;;;;;11.63;66.66;97720.63;5094526;28;20089;-58
2022/09/28 01:55:24;;;;;;;10.13;8.75;;;;;;;11.64;66.46;97717.88;5093377;28;20068;-58
2022/09/28 01:57:56;;;;;;;10.90;9.38;;;;;;;11.63;66.19;97720.63;5094571;28;20048;-59
2022/09/28 02:00:23;;;;;;;10.27;8.55;;;;;;;11.60;66.14;97722.56;5093062;28;20043;-60
2022/09/28 02:03:04;;;;;;;10.38;9.20;;;;;;;11.55;66.62;97724.81;5092802;28;20079;-59
2022/09/28 02:05:46;;;;;;;13.10;10.25;;;;;;;11.53;66.35;97715.41;5093233;28;20044;-59
2022/09/28 02:08:24;;;;;;;14.20;9.75;;;;;;;11.51;66.28;97712.09;5092881;28;20083;-59
2022/09/28 02:10:59;;;;;;;10.05;9.10;;;;;;;11.49;66.35;97714.88;5094250;28;20055;-58
2022/09/28 02:13:34;;;;;;;11.65;9.77;;;;;;;11.45;66.52;97710.84;5092723;28;20079;-58
2022/09/28 02:16:09;;;;;;;11.10;9.45;;;;;;;11.43;66.31;97710.16;5094314;28;20093;-59
2022/09/28 02:18:35;;;;;;;12.07;9.68;;;;;;;11.43;66.38;97712.78;5092696;28;20052;-58
2022/09/28 02:21:13;;;;;;;12.00;9.00;;;;;;;11.37;66.54;97716.84;5093989;28;20138;-60
2022/09/28 02:23:51;;;;;;;12.90;9.25;;;;;;;11.37;66.75;97710.75;5094001;28;20047;-59
2022/09/28 02:26:22;;;;;;;13.38;10.18;;;;;;;11.36;66.95;97712.53;5093776;28;20044;-59
2022/09/28 02:28:48;;;;;;;10.57;8.15;;;;;;;11.37;66.82;97716.84;5092506;28;20040;-59
2022/09/28 02:31:15;;;;;;;10.18;8.18;;;;;;;11.37;66.87;97698.41;5093787;28;20131;-58
2022/09/28 02:33:43;;;;;;;11.13;8.80;;;;;;;11.39;66.92;97716.69;5093799;28;20054;-59
2022/09/28 02:36:10;;;;;;;13.80;9.30;;;;;;;11.39;66.75;97714.88;5092407;28;20048;-59
2022/09/28 02:38:37;;;;;;;10.10;8.15;;;;;;;11.41;66.92;97717.38;5093314;28;20044;-60
2022/09/28 02:41:11;;;;;;;12.10;8.38;;;;;;;11.38;66.99;97707.97;5093649;28;20135;-60
2022/09/28 02:43:47;;;;;;;9.95;8.25;;;;;;;11.43;66.91;97712.78;5093559;28;20090;-58
2022/09/28 02:46:56;;;;;;;10.60;7.75;;;;;;;11.39;66.87;97720.16;5092411;28;20044;-58
2022/09/28 02:50:01;;;;;;;10.98;8.27;;;;;;;11.38;66.78;97713.25;5085327;28;20474;-59
2022/09/28 02:52:46;;;;;;;9.25;7.38;;;;;;;11.41;66.81;97712.13;5092854;28;20434;-58
2022/09/28 02:55:29;;;;;;;9.27;7.47;;;;;;;11.41;66.75;97712.13;5093453;28;20078;-59
2022/09/28 02:58:21;;;;;;;8.85;7.07;;;;;;;11.38;67.05;97712.41;5093521;28;20612;-58
2022/09/28 03:01:18;;;;;;;8.48;7.47;;;;;;;11.37;67.02;97711.59;5093177;28;20408;-60
2022/09/28 03:04:00;;;;;;;9.15;7.53;;;;;;;11.37;67.36;97721.28;5093170;28;20476;-59
2022/09/28 03:06:47;;;;;;;10.50;7.47;;;;;;;11.38;67.48;97720.28;5093178;28;20079;-58
2022/09/28 03:09:24;;;;;;;10.32;7.20;;;;;;;11.40;67.16;97713.91;5092842;28;20044;-58
2022/09/28 03:11:56;;;;;;;10.63;7.88;;;;;;;11.43;67.31;97721.53;5092907;28;20321;-58
2022/09/28 03:14:22;;;;;;;9.57;8.48;;;;;;;11.46;66.98;97723.03;5091780;28;20048;-58
2022/09/28 03:16:49;;;;;;;9.43;7.70;;;;;;;11.47;66.98;97722.06;5093114;28;20076;-60
2022/09/28 03:19:20;;;;;;;11.60;8.27;;;;;;;11.47;66.90;97717.63;5092699;28;20087;-59
2022/09/28 03:21:46;;;;;;;8.85;7.75;;;;;;;11.48;66.93;97718.47;5091789;28;20071;-58
2022/09/28 03:24:13;;;;;;;12.25;8.85;;;;;;;11.50;66.93;97723.59;5092536;28;20320;-58
2022/09/28 03:26:40;;;;;;;8.35;7.53;;;;;;;11.49;66.96;97722.78;5092688;28;20086;-60
2022/09/28 03:29:06;;;;;;;8.68;7.88;;;;;;;11.49;66.87;97721.94;5092583;28;20109;-58
2022/09/28 03:31:34;;;;;;;9.63;8.45;;;;;;;11.48;66.79;97713.22;5092647;28;20142;-58
2022/09/28 03:34:00;;;;;;;10.05;8.55;;;;;;;11.48;66.91;97715.84;5091270;28;20044;-59
2022/09/28 03:36:27;;;;;;;9.07;8.13;;;;;;;11.47;66.94;97720.28;5092617;28;20131;-58
2022/09/28 03:38:54;;;;;;;10.95;8.25;;;;;;;11.47;67.00;97717.63;5092620;28;20048;-61
2022/09/28 03:41:23;;;;;;;10.70;8.05;;;;;;;11.47;67.04;97719.44;5092385;28;20484;-60
2022/09/28 03:43:49;;;;;;;11.40;8.20;;;;;;;11.49;66.81;97717.50;5092579;28;20097;-59
2022/09/28 03:46:16;;;;;;;10.40;8.40;;;;;;;11.49;66.85;97720.13;5092635;28;20059;-58
2022/09/28 03:48:43;;;;;;;9.23;7.72;;;;;;;11.49;67.13;97716.66;5092217;28;20059;-58
2022/09/28 03:51:11;;;;;;;9.38;8.20;;;;;;;11.49;66.92;97717.50;5092131;28;20083;-57
2022/09/28 03:53:37;;;;;;;9.57;7.88;;;;;;;11.48;67.05;97715.84;5092497;28;20086;-58
2022/09/28 03:56:07;;;;;;;8.77;7.88;;;;;;;11.47;66.73;97716.78;5092076;28;20754;-58
2022/09/28 03:58:33;;;;;;;9.73;8.30;;;;;;;11.46;66.87;97716.00;5090707;28;20131;-58
2022/09/28 04:01:06;;;;;;;9.75;8.63;;;;;;;11.45;67.01;97714.31;5090848;28;20086;-58
2022/09/28 04:03:33;;;;;;;6.63;5.95;;;;;;;11.46;66.81;97713.34;5091096;28;20052;-55
2022/09/28 04:06:00;;;;;;;10.73;8.65;;;;;;;11.46;66.76;97718.63;5090653;28;20127;-58
2022/09/28 04:08:26;;;;;;;9.85;8.85;;;;;;;11.45;66.80;97708.22;5090662;28;20109;-60
2022/09/28 04:10:57;;;;;;;11.98;9.05;;;;;;;11.43;67.12;97713.63;5091996;28;20087;-59
2022/09/28 04:13:26;;;;;;;9.90;8.75;;;;;;;11.44;67.02;97707.38;5091748;28;20480;-58
2022/09/28 04:15:54;;;;;;;11.45;8.38;;;;;;;11.44;67.01;97706.56;5091687;28;20044;-59
2022/09/28 04:18:21;;;;;;;10.95;8.48;;;;;;;11.44;67.17;97707.38;5090402;28;20067;-58
2022/09/28 04:20:58;;;;;;;12.10;10.10;;;;;;;11.42;67.50;97706.72;5091597;28;20040;-59
2022/09/28 04:23:26;;;;;;;13.30;8.73;;;;;;;11.46;67.09;97710.72;5091837;28;20113;-60
2022/09/28 04:25:53;;;;;;;11.98;10.02;;;;;;;11.49;66.96;97714.03;5090113;28;20075;-56
2022/09/28 04:31:10;;;;;;;9.88;8.65;;;;;;;11.47;67.23;97717.63;5091589;28;20079;-54
2022/09/28 04:33:37;;;;;;;12.10;9.77;;;;;;;11.51;67.02;97723.44;5090324;28;20055;-54
2022/09/28 04:36:04;;;;;;;13.07;9.95;;;;;;;11.49;66.76;97725.41;5091479;28;20072;-57
2022/09/28 04:38:32;;;;;;;13.20;9.43;;;;;;;11.47;67.00;97724.69;5091203;28;20079;-58
2022/09/28 04:41:18;;;;;;;11.75;9.52;;;;;;;11.46;66.95;97720.41;5090243;28;20052;-57
2022/09/28 04:43:49;;;;;;;11.93;9.75;;;;;;;11.44;67.22;97714.47;5091322;28;20051;-59
2022/09/28 04:46:16;;;;;;;10.55;9.18;;;;;;;11.45;67.19;97724.03;5089919;28;20476;-58
2022/09/28 04:48:42;;;;;;;10.52;8.63;;;;;;;11.44;67.24;97725.00;5091247;28;20056;-55
2022/09/28 04:51:09;;;;;;;10.48;8.02;;;;;;;11.44;67.08;97725.00;5091029;28;20048;-54
2022/09/28 04:53:35;;;;;;;8.63;7.68;;;;;;;11.44;67.23;97722.38;5091041;28;20055;-60
2022/09/28 04:56:05;;;;;;;9.27;6.53;;;;;;;11.44;67.36;97728.47;5091058;28;20056;-59
2022/09/28 04:58:34;;;;;;;7.35;6.18;;;;;;;11.43;67.45;97724.16;5091100;28;20076;-59
2022/09/28 05:01:04;;;;;;;8.07;6.63;;;;;;;11.44;67.29;97722.38;5089776;28;20541;-59
2022/09/28 05:03:30;;;;;;;8.13;6.90;;;;;;;11.45;67.17;97730.09;5091048;28;20387;-58
2022/09/28 05:05:57;;;;;;;9.52;6.88;;;;;;;11.45;67.19;97727.47;5090837;28;20051;-62
2022/09/28 05:08:25;;;;;;;9.48;6.68;;;;;;;11.44;67.05;97728.47;5091229;28;20126;-59
2022/09/28 05:10:59;;;;;;;7.60;6.70;;;;;;;11.40;67.25;97726.28;5090701;28;20554;-60
2022/09/28 05:13:29;;;;;;;7.18;6.47;;;;;;;11.40;66.96;97728.91;5091032;28;20105;-59
2022/09/28 05:15:57;;;;;;;7.82;6.53;;;;;;;11.39;66.84;97719.31;5090539;28;20093;-59
2022/09/28 05:18:29;;;;;;;6.85;5.85;;;;;;;11.38;66.91;97728.19;5089541;28;20450;-59
2022/09/28 05:20:56;;;;;;;7.22;5.63;;;;;;;11.37;66.74;97731.81;5090596;28;20051;-59
2022/09/28 05:23:23;;;;;;;6.57;5.75;;;;;;;11.33;66.85;97728.66;5090991;28;20476;-57
2022/09/28 05:25:49;;;;;;;7.68;5.97;;;;;;;11.32;66.80;97735.72;5089255;28;20131;-57
2022/09/28 05:28:25;;;;;;;8.15;5.35;;;;;;;11.28;67.19;97736.97;5089253;28;20047;-57
2022/09/28 05:30:51;;;;;;;7.63;5.60;;;;;;;11.29;67.07;97724.63;5089306;28;20051;-58
2022/09/28 05:33:18;;;;;;;8.07;4.93;;;;;;;11.30;67.20;97728.94;5090607;28;20141;-57
2022/09/28 05:35:44;;;;;;;4.78;4.28;;;;;;;11.29;67.10;97719.38;5090763;28;20062;-58
2022/09/28 05:38:17;;;;;;;;;;;;;;;11.29;67.34;97719.38;5091111;28;20120;-53
2022/09/28 05:40:44;;;;;;;3.80;3.40;;;;;;;11.34;66.75;97725.03;5090527;28;20085;-57
2022/09/28 05:43:11;;;;;;;5.18;3.60;;;;;;;11.33;66.55;97726.00;5090664;28;20048;-55
2022/09/28 05:45:37;;;;;;;5.80;3.65;;;;;;;11.32;66.83;97730.44;5090406;28;20451;-59
2022/09/28 05:48:04;;;;;;;4.20;3.60;;;;;;;11.31;66.89;97726.16;5090388;28;20048;-63
2022/09/28 05:50:30;;;;;;;4.30;3.83;;;;;;;11.31;66.76;97725.31;5090521;28;20488;-61
2022/09/28 05:53:06;;;;;;;5.13;4.63;;;;;;;11.30;66.79;97734.19;5090398;28;20062;-59
2022/09/28 05:55:34;;;;;;;5.20;4.43;;;;;;;11.29;66.81;97735.97;5090576;28;20086;-59
2022/09/28 05:58:03;;;;;;;6.18;5.20;;;;;;;11.28;66.96;97729.06;5090730;28;20044;-61
2022/09/28 06:00:31;;;;;;;5.30;4.47;;;;;;;11.28;67.03;97734.31;5088963;28;20480;-57
2022/09/28 06:03:04;;;;;;;6.38;5.38;;;;;;;11.28;67.21;97730.84;5090416;28;20044;-58
2022/09/28 06:05:35;;;;;;;4.95;4.45;;;;;;;11.29;67.29;97737.81;5090692;28;20127;-59
2022/09/28 06:08:06;;;;;;;5.88;5.13;;;;;;;11.30;67.27;97734.19;5088988;28;20472;-57
2022/09/28 06:10:33;;;;;;;5.82;5.22;;;;;;;11.31;67.27;97738.47;5090337;28;20523;-55
2022/09/28 06:13:00;;;;;;;7.47;6.45;;;;;;;11.31;67.48;97735.84;5090241;28;20485;-56
2022/09/28 06:15:29;;;;;;;6.57;5.97;;;;;;;11.32;67.40;97742.75;5089311;28;20044;-61
2022/09/28 06:18:00;;;;;;;7.70;5.55;;;;;;;11.33;67.30;97740.00;5090157;28;20055;-60
2022/09/28 06:20:30;;;;;;;7.78;6.22;;;;;;;11.33;67.17;97745.25;5090216;28;20076;-60
2022/09/28 06:22:57;;;;;;;8.27;6.45;;;;;;;11.34;66.89;97733.75;5090097;28;20079;-59
2022/09/28 06:25:24;;;;;;;7.40;6.53;;;;;;;11.33;67.03;97745.25;5090122;28;20775;-60
2022/09/28 06:27:59;;;;;;;7.05;6.35;;;;;;;11.29;67.27;97749.16;5093175;28;20044;-58
2022/09/28 06:30:27;;;;;;;7.63;6.03;;;;;;;11.29;66.99;97749.16;5092578;28;20085;-59
2022/09/28 06:32:55;;;;;;;7.65;5.95;;;;;;;11.28;67.13;97744.88;5093791;28;20060;-59
2022/09/28 06:35:24;;;;;;;6.40;5.50;;;;;;;11.27;67.08;97743.22;5092524;28;20075;-56
2022/09/28 06:37:52;;;;;;;6.07;5.13;;;;;;;11.27;67.10;97748.47;5093701;28;20318;-58
2022/09/28 06:40:20;;;;;;;5.68;4.80;;;;;;;11.25;67.09;97753.03;5093834;28;20048;-54
2022/09/28 06:43:09;;;;;;;5.22;4.50;;;;;;;11.23;67.44;97762.06;5093812;28;20040;-55
2022/09/28 06:45:37;;;;;;;7.35;4.78;;;;;;;11.27;67.37;97766.91;5093838;28;20044;-60
2022/09/28 06:48:04;;;;;;;6.38;5.13;;;;;;;11.28;67.34;97768.56;5092146;28;20094;-60
2022/09/28 06:50:36;;;;;;;5.90;5.30;;;;;;;11.29;67.17;97770.22;5093343;28;20036;-57
2022/09/28 06:53:08;;;;;;;6.30;4.90;;;;;;;11.30;66.98;97771.06;5092211;28;20055;-58
2022/09/28 06:55:37;;;;;;;5.65;4.28;;;;;;;11.29;66.92;97770.22;5093621;28;20097;-58
2022/09/28 06:58:08;;;;;;;3.92;3.58;;;;;;;11.30;66.92;97773.69;5093126;28;20400;-60
2022/09/28 07:00:36;;;;;;;3.75;3.33;;;;;;;11.30;67.00;97784.22;5092097;28;20078;-58
2022/09/28 07:03:10;;;;;;;6.25;3.63;;;;;;;11.30;67.09;97773.69;5091857;28;20545;-56
2022/09/28 07:05:40;;;;;;;4.55;3.88;;;;;;;11.32;67.32;97774.38;5093581;28;20515;-57
2022/09/28 07:08:07;;;;;;;3.50;2.97;;;;;;;11.34;67.33;97778.53;5093095;28;20070;-58
2022/09/28 07:10:34;;;;;;;3.70;3.20;;;;;;;11.37;67.44;97787.13;5093255;28;20048;-57
2022/09/28 07:13:03;;;;;;;4.90;3.50;;;;;;;11.39;67.20;97782.53;5092908;28;20083;-58
2022/09/28 07:15:31;;;;;;;3.53;2.83;;;;;;;11.41;67.06;97793.78;5092882;28;20040;-57
2022/09/28 07:17:59;;;;;;;3.15;2.40;;;;;;;11.43;67.00;97797.94;5091784;28;20051;-58
2022/09/28 07:20:30;;;;;;;1.75;1.65;;;;;;;11.44;66.81;97806.69;5093011;28;20048;-60
2022/09/28 07:22:59;;;;;;;1.70;1.60;;;;;;;11.45;66.83;97797.78;5092733;28;20052;-59
2022/09/28 07:25:44;;;;;;;1.80;1.70;;;;;;;11.47;66.79;97806.38;5091664;28;20093;-59
2022/09/28 07:28:11;;;;;;;2.33;1.80;;;;;;;11.47;66.78;97807.22;5092776;28;20052;-60
2022/09/28 07:30:37;;;;;;;2.15;1.77;;;;;;;11.50;66.99;97808.72;5092936;28;20106;-60
2022/09/28 07:33:06;;;;;;;1.80;1.65;;;;;;;11.50;66.98;97808.72;5092661;28;20044;-57
2022/09/28 07:35:33;;;;;;;2.17;1.70;;;;;;;11.52;67.02;97808.59;5091478;28;20087;-58
2022/09/28 07:38:02;;;;;;;2.42;2.03;;;;;;;11.54;67.05;97815.38;5091342;28;20377;-58
2022/09/28 07:43:19;;;;;;;3.67;2.60;;;;;;;11.58;67.05;97818.56;5092504;28;20040;-58
2022/09/28 07:45:47;;;;;;;2.75;2.33;;;;;;;11.60;66.90;97821.91;5091193;28;20488;-57
2022/09/28 07:48:15;;;;;;;2.55;2.35;;;;;;;11.62;67.09;97824.41;5092263;28;20121;-58
2022/09/28 07:50:50;;;;;;;4.32;2.70;;;;;;;11.62;66.78;97835.75;5092259;28;20052;-59
2022/09/28 07:53:19;;;;;;;3.20;2.83;;;;;;;11.65;66.87;97840.75;5092518;28;20047;-58
2022/09/28 07:55:53;;;;;;;3.50;2.83;;;;;;;11.64;66.62;97840.88;5092298;28;20094;-60
2022/09/28 07:58:19;;;;;;;3.17;2.75;;;;;;;11.66;66.69;97847.66;5091962;28;20481;-60
2022/09/28 08:00:47;;;;;;;5.30;3.33;;;;;;;11.66;66.68;97844.22;5092156;28;20091;-60
2022/09/28 08:03:16;;;;;;;4.30;3.90;;;;;;;11.67;66.80;97845.88;5091946;28;20123;-59
2022/09/28 08:05:42;;;;;;;4.43;3.95;;;;;;;11.67;67.20;97849.31;5092302;28;20036;-59
2022/09/28 08:08:09;;;;;;;4.40;4.00;;;;;;;11.68;67.09;97853.66;5091884;28;20495;-58
2022/09/28 08:10:36;;;;;;;5.55;4.45;;;;;;;11.71;67.26;97849.88;5091880;28;20522;-60
2022/09/28 08:13:03;;;;;;;6.80;5.75;;;;;;;11.75;67.28;97847.78;5092059;28;20048;-58
2022/09/28 08:15:35;;;;;;;5.70;4.97;;;;;;;11.78;67.41;97853.59;5091882;28;20040;-59
2022/09/28 08:18:05;;;;;;;9.80;6.30;;;;;;;11.80;67.59;97854.31;5091732;28;20383;-61
2022/09/28 08:23:19;;;;;;;8.82;6.10;;;;;;;11.91;67.50;97855.09;5092101;28;20332;-59
2022/09/28 08:25:51;;;;;;;8.45;7.03;;;;;;;11.95;67.73;97854.69;5090254;28;20326;-59
2022/09/28 08:28:18;;;;;;;7.50;6.47;;;;;;;12.03;68.03;97861.06;5091640;28;20400;-60
2022/09/28 08:30:46;;;;;;;10.18;8.10;;;;;;;12.10;68.06;97855.06;5091456;28;20479;-59
2022/09/28 08:33:14;;;;;;;10.70;9.10;;;;;;;12.20;68.13;97859.47;5091819;28;20436;-59
2022/09/28 08:35:41;;;;;;;12.10;10.00;;;;;;;12.30;68.36;97859.44;5090209;28;20480;-59
2022/09/28 08:38:08;;;;;;;14.88;10.73;;;;;;;12.41;68.33;97863.69;5091231;28;20488;-58
2022/09/28 08:41:14;;;;;;;16.83;10.75;;;;;;;12.48;68.16;97865.59;5089975;28;20040;-56
2022/09/28 08:43:59;;;;;;;13.52;10.13;;;;;;;12.63;68.07;97868.56;5066835;28;20135;-60
2022/09/28 08:46:33;;;;;;;14.00;10.68;;;;;;;12.76;68.05;97868.22;5091801;28;20044;-58
2022/09/28 08:49:07;;;;;;;14.65;11.60;;;;;;;12.89;67.33;97874.94;5090503;28;20048;-58
2022/09/28 08:52:02;;;;;;;14.52;11.50;;;;;;;12.98;66.91;97874.03;5090280;28;20495;-59
2022/09/28 08:55:10;;;;;;;13.77;11.60;;;;;;;13.06;66.79;97870.66;5091148;28;20036;-58
2022/09/28 08:57:44;;;;;;;15.07;10.70;;;;;;;13.20;67.30;97881.69;5089771;28;20131;-60
2022/09/28 09:00:28;;;;;;;17.13;11.93;;;;;;;13.25;66.22;97879.41;5091087;28;20040;-58
2022/09/28 09:02:55;;;;;;;15.63;11.35;;;;;;;13.36;66.61;97878.34;5089842;28;20513;-59
2022/09/28 09:05:38;;;;;;;16.17;10.57;;;;;;;13.39;65.63;97884.16;5090972;28;20460;-59
2022/09/28 09:08:23;;;;;;;11.35;9.32;;;;;;;13.47;65.30;97885.22;5090873;28;20087;-60
2022/09/28 09:10:56;;;;;;;11.48;9.32;;;;;;;13.55;66.10;97886.16;5091049;28;20090;-56
2022/09/28 09:13:45;;;;;;;12.18;8.95;;;;;;;13.62;66.34;97890.81;5090997;28;20472;-60
2022/09/28 09:16:33;;;;;;;11.60;8.88;;;;;;;13.74;65.22;97892.25;5090830;28;20044;-59
2022/09/28 09:19:17;;;;;;;12.10;9.55;;;;;;;13.90;66.53;97891.53;5090781;28;20059;-58
2022/09/28 09:22:26;;;;;;;15.18;11.25;;;;;;;13.98;64.85;97900.50;5090727;28;20087;-60
2022/09/28 09:25:20;;;;;;;14.55;10.80;;;;;;;14.03;64.23;97904.34;5090670;28;20101;-58
2022/09/28 09:28:26;;;;;;;14.02;10.80;;;;;;;14.01;63.33;97906.31;5088575;28;20089;-61
2022/09/28 09:31:01;;;;;;;13.45;10.98;;;;;;;13.96;62.68;97913.03;5058946;28;20081;-58
2022/09/28 09:33:33;;;;;;;13.15;11.05;;;;;;;13.84;62.41;97912.47;5090426;28;20044;-60
2022/09/28 09:36:17;;;;;;;14.93;12.53;;;;;;;13.67;62.71;97915.81;5090911;28;20441;-58
2022/09/28 09:38:46;;;;;;;14.85;11.10;;;;;;;13.60;63.12;97917.41;5090657;28;20044;-56
2022/09/28 09:41:22;;;;;;;13.52;11.00;;;;;;;13.46;63.03;97923.22;5090376;28;20074;-57
2022/09/28 09:44:20;;;;;;;13.98;11.45;;;;;;;13.32;63.46;97922.75;5090904;28;20094;-55
2022/09/28 09:47:10;;;;;;;17.05;13.00;;;;;;;13.27;64.04;97919.75;5089350;28;20090;-56
2022/09/28 09:49:48;;;;;;;15.15;11.07;;;;;;;13.29;64.87;97920.41;5090339;28;20373;-57
2022/09/28 09:52:23;;;;;;;19.55;12.30;;;;;;;13.31;65.81;97914.97;5089323;28;20047;-57
2022/09/28 09:55:13;;;;;;;17.15;11.45;;;;;;;13.38;66.26;97918.69;5090495;28;20496;-55
2022/09/28 09:57:50;;;;;;;14.50;11.27;;;;;;;13.52;66.34;97918.19;5090536;28;20075;-59
2022/09/28 10:00:17;;;;;;;13.20;9.80;;;;;;;13.65;66.03;97923.06;5090311;28;20124;-59
2022/09/28 10:02:46;;;;;;;11.70;10.40;;;;;;;13.76;65.23;97931.75;5093785;28;20052;-59
2022/09/28 10:05:16;;;;;;;9.75;8.73;;;;;;;13.84;64.87;97921.25;5093292;28;20622;-59
2022/09/28 10:08:10;;;;;;;12.07;9.40;;;;;;;13.86;64.48;97929.03;5094525;28;20086;-59
2022/09/28 10:11:01;;;;;;;13.55;10.43;;;;;;;13.96;64.79;97931.56;5092926;28;20075;-59
2022/09/28 10:13:28;;;;;;;11.90;9.27;;;;;;;14.05;65.05;97930.63;5094210;28;20040;-56
2022/09/28 10:15:55;;;;;;;12.30;9.68;;;;;;;14.11;65.46;97932.66;5094419;28;20087;-61
2022/09/28 10:18:22;;;;;;;13.02;10.13;;;;;;;14.20;65.42;97929.06;5092699;28;20444;-57
2022/09/28 10:20:48;;;;;;;16.25;10.27;;;;;;;14.31;66.38;97933.28;5092658;28;20075;-59
2022/09/28 10:23:32;;;;;;;15.32;10.63;;;;;;;14.43;65.06;97931.19;5093858;28;20055;-59
2022/09/28 10:26:04;;;;;;;12.30;10.00;;;;;;;14.64;66.03;97934.41;5094123;28;20048;-59
2022/09/28 10:28:53;;;;;;;14.00;10.70;;;;;;;14.83;65.51;97933.38;5093991;28;20039;-60
2022/09/28 10:31:36;;;;;;;12.02;10.07;;;;;;;15.02;63.96;97934.09;5093770;28;20075;-59
2022/09/28 10:34:04;;;;;;;12.88;9.65;;;;;;;15.16;63.22;97936.13;5092917;28;20131;-59
2022/09/28 10:36:41;;;;;;;11.85;10.57;;;;;;;15.19;62.21;97934.97;5093745;28;20079;-58
2022/09/28 10:39:25;;;;;;;13.55;9.63;;;;;;;15.09;61.26;97949.19;5093603;28;20550;-57
2022/09/28 10:41:52;;;;;;;13.52;9.98;;;;;;;15.03;61.20;97949.81;5093742;28;20040;-60
2022/09/28 10:44:21;;;;;;;10.98;9.63;;;;;;;14.92;60.90;97944.84;5092624;28;20423;-60
2022/09/28 10:46:58;;;;;;;12.73;9.80;;;;;;;14.76;60.10;97946.41;5092188;28;20076;-59
2022/09/28 10:49:26;;;;;;;13.25;10.48;;;;;;;14.67;61.32;97942.88;5093729;28;20454;-59
2022/09/28 10:51:54;;;;;;;10.65;9.48;;;;;;;14.56;61.34;97944.00;5093362;28;20085;-58
2022/09/28 10:54:27;;;;;;;12.40;10.15;;;;;;;14.46;61.89;97944.13;5093402;28;20125;-60
2022/09/28 10:56:55;;;;;;;10.67;9.30;;;;;;;14.45;62.95;97941.63;5093380;28;20076;-59
2022/09/28 10:59:32;;;;;;;11.35;9.18;;;;;;;14.49;64.15;97947.41;5093209;28;20289;-58
2022/09/28 11:02:11;;;;;;;10.07;8.80;;;;;;;14.58;63.02;97949.94;5093377;28;20094;-59
2022/09/28 11:04:41;;;;;;;10.15;8.80;;;;;;;14.79;65.47;97953.22;5093157;28;20467;-59
2022/09/28 11:07:22;;;;;;;11.75;8.45;;;;;;;15.04;64.35;97956.81;5091910;28;20089;-58
2022/09/28 11:09:51;;;;;;;10.70;8.55;;;;;;;15.45;67.20;97953.41;5091901;28;20086;-59
2022/09/28 11:12:23;;;;;;;8.35;6.68;;;;;;;15.92;66.75;97953.75;5092542;28;20131;-59
2022/09/28 11:14:58;;;;;;;7.55;6.22;;;;;;;16.58;66.36;97951.97;5091831;28;20076;-60
2022/09/28 11:17:40;;;;;;;7.00;6.07;;;;;;;17.38;66.57;97944.00;5091923;28;20440;-58
2022/09/28 11:20:22;;;;;;;6.50;5.72;;;;;;;18.32;63.88;97955.41;5093010;28;20100;-59
2022/09/28 11:22:54;;;;;;;7.32;5.40;;;;;;;19.20;66.72;97946.69;5092841;28;20131;-59
2022/09/28 11:25:29;;;;;;;7.20;5.50;;;;;;;20.03;61.71;97945.44;5092960;28;20083;-59
2022/09/28 11:27:58;;;;;;;11.63;5.45;;;;;;;20.78;60.72;97952.06;5091709;28;20054;-60
2022/09/28 11:30:31;;;;;;;5.30;4.80;;;;;;;21.37;56.27;97940.16;5092867;28;20044;-59
2022/09/28 11:33:11;;;;;;;6.05;4.57;;;;;;;21.78;52.58;97943.72;5092552;28;20525;-60
2022/09/28 11:36:15;;;;;;;5.85;4.60;;;;;;;22.04;53.39;97936.72;5092729;28;20047;-59
2022/09/28 11:39:08;;;;;;;8.18;4.38;;;;;;;22.34;52.75;97942.44;5092581;28;20396;-59
2022/09/28 11:41:52;;;;;;;6.50;4.78;;;;;;;22.71;53.90;97941.97;5093022;28;20090;-59
2022/09/28 11:44:43;;;;;;;5.32;4.47;;;;;;;23.21;53.86;97945.88;5092378;28;20087;-61
2022/09/28 11:47:28;;;;;;;4.70;4.20;;;;;;;23.76;54.13;97947.22;5092373;28;20482;-60
2022/09/28 11:50:19;;;;;;;4.97;3.45;;;;;;;24.30;50.49;97952.16;5092096;28;20056;-59
2022/09/28 11:52:56;;;;;;;4.32;3.78;;;;;;;24.83;50.98;97946.44;5091402;28;20048;-59
2022/09/28 11:55:35;;;;;;;4.10;3.70;;;;;;;25.13;44.26;97945.66;5092506;28;20117;-61
2022/09/28 11:58:17;;;;;;;4.25;3.40;;;;;;;25.42;46.77;97943.19;5090888;28;20079;-59
2022/09/28 12:00:53;;;;;;;4.17;3.50;;;;;;;25.75;45.68;97943.75;5091110;28;20113;-58
2022/09/28 12:03:34;;;;;;;7.20;3.47;;;;;;;26.09;45.91;97943.22;5090939;28;20535;-58
2022/09/28 12:06:06;;;;;;;3.20;2.83;;;;;;;26.50;45.61;97949.56;5092187;28;20498;-58
2022/09/28 12:08:39;;;;;;;4.97;3.17;;;;;;;26.92;46.51;97945.81;5091946;28;20044;-60